الصفحة الرئيسية
METAR-TAF:

METAR-TAF

مطار :

سكوتسديل, أريزونا, الولايات المتحدة

دائرة عرض: 33-37-22N, خط طول: 111-54-38W, ارتفاع: 460 متر

مراقبة الطقس الحالي

تاريخ ووقت الإصدار 36 دقيقة قبل الساعة 09:53UTC
رياح هادئة
درجة الحرارة 26°درجة مئوية
الرطوبة 24%
ضغط 1016 hPa
الرؤية: 16.1 كم
سماء صافية

METAR: KSDL 290953Z AUTO 00000KT 10SM CLR 26/04 A3000 RMK AO2 SLP131 T02610039

زمن: 03:29 (10:29 UTC)

توقعات

تاريخ ووقت الإصدار 5ساعات و 9 دقيقة قبل الساعة 05:20UTC
التوقعات صالحة من29 الساعة 06 UTC إلى 30 الساعة 06 UTC
ريح 8 عقدة من الشرق/الشمال الشرقي
الرؤية: 10 كم
سماء صافية
من 29 الساعة 1600 UTC
ريح 11 عقدة من الشرق تتزايد حتى 18 عقدة
الرؤية: 10 كم
سماء صافية
من 29 الساعة 1900 UTC
ريح 8 عقدة من الشرق/الجنوب الشرقي
الرؤية: 10 كم
سماء صافية
من 29 الساعة 2300 UTC
ريح 5 عقدة من الجنوب/الجنوب الغربي
الرؤية: 10 كم
سماء صافية
من 30 الساعة 0300 UTC
ريح 4 عقدةمن اتجاهات متغيرة
الرؤية: 10 كم
سماء صافية

TAF: KSDL 290520Z 2906/3006 06008KT P6SM SKC FM291600 10011G18KT P6SM SKC FM291900 12008KT P6SM SKC FM292300 20005KT P6SM SKC FM300300 VRB04KT P6SM SKC

أرصاد الطقس والتوقعات من أكثر من 4000 مطار (تقارير الطقس للمطار METAR والتنبؤ بالطقس بالمطارTAF).

المحطات المتاحة هي النقط الصفراء والحمراء على الخريطة.

حرك المؤشر فوق النقطة لمعرفة اسم المحطة.

ثم انقر لمعرفة أرصاد وتوقعات الطقس.

لتغيير الخارطة: اضغط على الأزرار الخضراء مع رمز الصليب الأسود للتكبير. على الزر الأخضر مع شرطة للتصغير، أو على الأسهم الخضراء للخرائط المجاورة.


METAR-TAF: